Time;durP1;ratioP1;P1;durP2;ratioP2;P2;SDS_P1;SDS_P2;PMS_P1;PMS_P2;Temp;Humidity;BMP_temperature;BMP_pressure;BME280_temperature;BME280_humidity;BME280_pressure;Samples;Min_cycle;Max_cycle;Signal;HPM_P1;HPM_P2
2023/07/13 00:00:20;;;;;;;5.32;1.90;;;18.10;74.50;;;;;;5092766;28;20111;-76
2023/07/13 00:02:46;;;;;;;5.65;2.47;;;18.20;74.50;;;;;;5092704;28;20032;-75
2023/07/13 00:05:11;;;;;;;5.47;2.30;;;18.20;74.50;;;;;;5092653;28;20030;-75
2023/07/13 00:07:37;;;;;;;5.32;2.15;;;18.20;74.70;;;;;;5092753;28;20363;-76
2023/07/13 00:10:04;;;;;;;5.10;2.10;;;18.20;74.60;;;;;;5093586;28;20042;-75
2023/07/13 00:12:33;;;;;;;6.43;1.90;;;18.10;74.60;;;;;;5093547;28;20383;-75
2023/07/13 00:15:00;;;;;;;4.38;2.17;;;18.00;74.80;;;;;;5093526;28;20021;-75
2023/07/13 00:17:27;;;;;;;3.80;1.73;;;18.00;74.90;;;;;;5092472;28;20029;-75
2023/07/13 00:19:55;;;;;;;4.13;1.95;;;18.00;74.80;;;;;;5092481;28;20029;-75
2023/07/13 00:22:21;;;;;;;6.68;1.83;;;18.00;75.00;;;;;;5093461;28;20483;-75
2023/07/13 00:24:47;;;;;;;4.85;2.00;;;18.00;74.90;;;;;;5092328;28;20493;-75
2023/07/13 00:27:14;;;;;;;5.82;2.10;;;18.00;75.00;;;;;;5093381;28;20048;-75
2023/07/13 00:29:39;;;;;;;7.30;1.90;;;18.00;75.10;;;;;;5092338;28;20050;-75
2023/07/13 00:32:06;;;;;;;5.35;2.05;;;18.00;75.00;;;;;;5093335;28;20171;-76
2023/07/13 00:34:32;;;;;;;4.68;2.05;;;18.00;75.10;;;;;;5075674;28;20035;-75
2023/07/13 00:36:58;;;;;;;5.55;1.58;;;17.90;75.20;;;;;;5092248;28;20029;-75
2023/07/13 00:39:24;;;;;;;5.97;1.77;;;17.90;75.30;;;;;;5092298;28;20029;-75
2023/07/13 00:41:50;;;;;;;3.05;1.70;;;17.90;75.50;;;;;;5096429;28;20025;-76
2023/07/13 00:44:17;;;;;;;4.05;1.90;;;17.90;75.70;;;;;;5099830;28;20047;-75
2023/07/13 00:46:43;;;;;;;4.13;2.03;;;17.90;75.80;;;;;;5098921;28;20047;-75
2023/07/13 00:49:13;;;;;;;6.28;2.28;;;17.90;75.80;;;;;;5098851;28;20463;-76
2023/07/13 00:51:47;;;;;;;6.53;2.10;;;17.80;76.20;;;;;;5098911;28;20103;-75
2023/07/13 00:54:17;;;;;;;5.85;2.00;;;17.80;76.10;;;;;;5098837;28;20088;-75
2023/07/13 00:56:45;;;;;;;8.23;2.08;;;17.80;76.30;;;;;;5098921;28;20031;-75
2023/07/13 00:59:13;;;;;;;2.85;1.77;;;17.70;76.50;;;;;;5098747;28;20024;-75
2023/07/13 01:01:39;;;;;;;6.40;2.15;;;17.70;76.70;;;;;;5099740;28;20024;-75
2023/07/13 01:04:07;;;;;;;5.93;1.70;;;17.70;77.00;;;;;;5098722;28;20047;-75
2023/07/13 01:06:34;;;;;;;4.35;1.60;;;17.60;77.00;;;;;;5099687;28;20048;-75
2023/07/13 01:09:01;;;;;;;4.38;1.88;;;17.60;77.00;;;;;;5099676;28;20023;-75
2023/07/13 01:11:27;;;;;;;4.38;1.90;;;17.60;77.10;;;;;;5099657;28;20024;-75
2023/07/13 01:13:54;;;;;;;4.93;2.08;;;17.60;77.30;;;;;;5098645;28;20016;-75
2023/07/13 01:16:30;;;;;;;4.75;1.80;;;17.60;77.30;;;;;;5082020;28;20048;-75
2023/07/13 01:19:00;;;;;;;5.72;1.77;;;17.60;77.50;;;;;;5098877;28;20028;-75
2023/07/13 01:21:29;;;;;;;3.88;1.50;;;17.60;77.50;;;;;;5099620;28;20024;-76
2023/07/13 01:23:55;;;;;;;3.80;1.83;;;17.60;77.30;;;;;;5099537;28;20024;-75
2023/07/13 01:26:21;;;;;;;8.23;2.05;;;17.60;77.60;;;;;;5098474;28;20016;-75
2023/07/13 01:28:46;;;;;;;4.38;3.10;;;17.60;77.60;;;;;;5098632;28;20058;-75
2023/07/13 01:31:12;;;;;;;4.78;1.95;;;17.60;77.60;;;;;;5099498;28;20044;-75
2023/07/13 01:33:41;;;;;;;5.95;1.92;;;17.60;77.90;;;;;;5098626;28;20052;-75
2023/07/13 01:36:08;;;;;;;5.47;2.00;;;17.50;78.20;;;;;;5098655;28;20024;-75
2023/07/13 01:38:34;;;;;;;5.88;1.70;;;17.40;78.50;;;;;;5098515;28;20032;-75
2023/07/13 01:41:00;;;;;;;3.42;1.90;;;17.40;78.60;;;;;;5099415;28;20032;-75
2023/07/13 01:43:26;;;;;;;6.80;1.88;;;17.40;78.70;;;;;;5098160;28;20049;-75
2023/07/13 01:45:52;;;;;;;4.28;1.83;;;17.40;78.70;;;;;;5098389;28;20051;-76
2023/07/13 01:48:17;;;;;;;6.35;1.80;;;17.50;78.50;;;;;;5098372;28;20099;-75
2023/07/13 01:50:43;;;;;;;5.82;2.13;;;17.40;78.50;;;;;;5099332;28;20028;-75
2023/07/13 01:53:09;;;;;;;7.43;2.08;;;17.40;78.70;;;;;;5095961;28;20480;-76
2023/07/13 01:55:35;;;;;;;4.70;1.98;;;17.40;78.70;;;;;;5095159;28;20036;-76
2023/07/13 01:58:01;;;;;;;5.85;1.90;;;17.40;79.00;;;;;;5096014;28;20042;-75
2023/07/13 02:00:26;;;;;;;7.28;2.00;;;17.40;78.90;;;;;;5094969;28;20051;-74
2023/07/13 02:02:52;;;;;;;2.28;1.70;;;17.40;78.80;;;;;;5095087;28;20028;-75
2023/07/13 02:05:18;;;;;;;3.13;1.63;;;17.40;79.70;;;;;;5095845;28;20029;-76
2023/07/13 02:07:44;;;;;;;5.57;2.05;;;17.40;78.90;;;;;;5078125;28;20021;-75
2023/07/13 02:10:10;;;;;;;5.18;2.20;;;17.40;78.90;;;;;;5095836;28;20025;-75
2023/07/13 02:12:37;;;;;;;8.75;2.05;;;17.40;78.90;;;;;;5095752;28;20024;-75
2023/07/13 02:15:04;;;;;;;5.47;1.88;;;17.30;79.10;;;;;;5094696;28;20051;-75
2023/07/13 02:17:30;;;;;;;3.33;1.83;;;17.30;79.40;;;;;;5094590;28;20031;-75
2023/07/13 02:19:55;;;;;;;7.18;2.00;;;17.30;79.40;;;;;;5094716;28;20036;-75
2023/07/13 02:22:22;;;;;;;4.53;1.83;;;17.30;79.50;;;;;;5095645;28;20050;-75
2023/07/13 02:24:48;;;;;;;6.32;1.67;;;17.20;79.50;;;;;;5094631;28;20024;-75
2023/07/13 02:27:14;;;;;;;6.30;2.03;;;17.20;80.40;;;;;;5077938;28;20070;-76
2023/07/13 02:29:39;;;;;;;6.03;1.80;;;17.20;79.80;;;;;;5077802;28;20047;-75
2023/07/13 02:32:05;;;;;;;8.27;2.40;;;17.10;79.80;;;;;;5094599;28;20040;-76
2023/07/13 02:34:31;;;;;;;4.85;1.70;;;17.10;80.00;;;;;;5095294;28;20029;-75
2023/07/13 02:36:57;;;;;;;6.60;2.42;;;17.10;80.30;;;;;;5094369;28;20049;-76
2023/07/13 02:39:22;;;;;;;5.68;1.67;;;17.00;80.50;;;;;;5077525;28;20082;-75
2023/07/13 02:41:48;;;;;;;4.38;1.90;;;17.00;80.60;;;;;;5094142;28;20048;-75
2023/07/13 02:44:15;;;;;;;6.93;1.98;;;17.00;80.60;;;;;;5094298;28;20040;-75
2023/07/13 02:46:40;;;;;;;6.97;2.13;;;17.00;80.80;;;;;;5095105;28;20028;-75
2023/07/13 02:49:06;;;;;;;3.35;1.80;;;17.00;80.80;;;;;;5095073;28;20028;-75
2023/07/13 02:51:33;;;;;;;6.22;2.25;;;17.10;80.70;;;;;;5094980;28;20017;-75
2023/07/13 02:54:00;;;;;;;4.75;1.67;;;17.00;80.70;;;;;;5095133;28;20023;-75
2023/07/13 02:56:28;;;;;;;6.40;1.70;;;17.10;80.70;;;;;;5094906;28;20527;-74
2023/07/13 02:58:54;;;;;;;3.60;1.58;;;17.00;80.80;;;;;;5093817;28;20017;-75
2023/07/13 03:01:21;;;;;;;5.28;2.00;;;17.00;80.90;;;;;;5094838;28;20024;-76
2023/07/13 03:03:51;;;;;;;2.85;1.80;;;16.90;81.10;;;;;;5093617;28;20016;-76
2023/07/13 03:06:17;;;;;;;5.25;1.80;;;16.90;81.30;;;;;;5094649;28;20029;-75
2023/07/13 03:08:44;;;;;;;3.47;1.60;;;16.80;81.80;;;;;;5094682;28;20387;-75
2023/07/13 03:11:18;;;;;;;5.95;1.65;;;16.80;82.20;;;;;;5093609;28;20051;-75
2023/07/13 03:13:43;;;;;;;3.28;1.77;;;16.70;82.70;;;;;;5093520;28;20025;-75
2023/07/13 03:16:10;;;;;;;3.88;1.60;;;16.70;82.60;;;;;;5093680;28;20043;-75
2023/07/13 03:18:36;;;;;;;4.05;1.80;;;16.70;82.60;;;;;;5094507;28;20020;-76
2023/07/13 03:21:03;;;;;;;4.68;1.90;;;16.70;83.10;;;;;;5094420;28;20076;-75
2023/07/13 03:23:28;;;;;;;6.10;1.85;;;16.60;83.20;;;;;;5094378;28;20031;-75
2023/07/13 03:26:18;;;;;;;5.65;1.92;;;16.60;83.40;;;;;;5094260;28;20056;-75
2023/07/13 03:28:44;;;;;;;3.85;1.85;;;16.70;83.20;;;;;;5094329;28;20076;-75
2023/07/13 03:31:16;;;;;;;3.63;1.85;;;16.80;83.00;;;;;;5094203;28;20046;-76
2023/07/13 03:33:42;;;;;;;4.18;1.60;;;16.80;83.00;;;;;;5093212;28;20035;-75
2023/07/13 03:36:13;;;;;;;4.88;1.73;;;16.80;82.90;;;;;;5093143;28;20398;-75
2023/07/13 03:38:39;;;;;;;5.63;2.45;;;16.80;82.90;;;;;;5093087;28;20049;-76
2023/07/13 03:41:04;;;;;;;5.53;1.90;;;16.80;82.90;;;;;;5093129;28;20037;-75
2023/07/13 03:43:30;;;;;;;5.57;1.77;;;16.70;83.30;;;;;;5092850;28;20070;-75
2023/07/13 03:45:56;;;;;;;4.47;1.77;;;16.60;83.70;;;;;;5092951;28;20051;-75
2023/07/13 03:48:21;;;;;;;7.70;1.98;;;16.60;83.60;;;;;;5093920;28;20029;-75
2023/07/13 03:50:49;;;;;;;3.95;1.67;;;16.60;84.10;;;;;;5092828;28;20055;-75
2023/07/13 03:53:15;;;;;;;4.38;1.50;;;16.60;84.00;;;;;;5093894;28;20051;-76
2023/07/13 03:55:40;;;;;;;8.07;2.10;;;16.60;83.80;;;;;;5093758;28;20020;-75
2023/07/13 03:58:39;;;;;;;4.78;2.00;;;16.60;83.90;;;;;;5092813;28;20039;-75
2023/07/13 04:01:06;;;;;;;5.20;2.10;;;16.60;84.10;;;;;;5060537;28;20029;-75
2023/07/13 04:03:33;;;;;;;6.82;2.03;;;16.60;84.30;;;;;;5092710;28;20021;-75
2023/07/13 04:06:03;;;;;;;5.43;2.20;;;16.60;84.10;;;;;;5093565;28;20028;-76
2023/07/13 04:08:31;;;;;;;7.97;2.55;;;16.60;84.60;;;;;;5093698;28;20024;-76
2023/07/13 04:10:57;;;;;;;8.50;2.13;;;16.60;84.50;;;;;;5093543;28;20025;-75
2023/07/13 04:13:24;;;;;;;7.05;2.63;;;16.60;85.70;;;;;;5092726;28;20021;-75
2023/07/13 04:15:50;;;;;;;5.45;2.58;;;16.60;84.90;;;;;;5092161;28;20081;-75
2023/07/13 04:18:15;;;;;;;5.75;2.25;;;16.60;85.00;;;;;;5093591;28;20076;-76
2023/07/13 04:20:41;;;;;;;6.93;2.28;;;16.60;85.30;;;;;;5092757;28;20029;-75
2023/07/13 04:23:07;;;;;;;4.82;2.17;;;16.50;85.50;;;;;;5092650;28;20028;-76
2023/07/13 04:25:32;;;;;;;7.20;2.53;;;16.60;85.60;;;;;;5093478;28;20115;-76
2023/07/13 04:27:58;;;;;;;6.28;2.40;;;16.60;85.60;;;;;;5075600;28;20467;-75
2023/07/13 04:30:24;;;;;;;5.75;2.30;;;16.60;85.80;;;;;;5093380;28;20027;-76
2023/07/13 04:32:52;;;;;;;6.20;2.10;;;16.60;85.90;;;;;;5092436;28;20036;-76
2023/07/13 04:35:20;;;;;;;7.72;2.20;;;16.60;86.10;;;;;;5092180;28;20100;-77
2023/07/13 04:37:50;;;;;;;7.00;2.65;;;16.50;86.80;;;;;;5075938;28;20059;-76
2023/07/13 04:40:17;;;;;;;7.13;2.28;;;16.50;86.50;;;;;;5093265;28;20029;-76
2023/07/13 04:42:45;;;;;;;6.85;2.80;;;16.50;87.20;;;;;;5093087;28;20045;-76
2023/07/13 04:45:11;;;;;;;6.53;2.70;;;16.50;87.40;;;;;;5092025;28;20037;-76
2023/07/13 04:47:36;;;;;;;8.77;3.00;;;16.50;87.50;;;;;;5092158;28;20025;-76
2023/07/13 04:50:02;;;;;;;5.57;2.65;;;16.60;87.70;;;;;;5075407;28;20047;-76
2023/07/13 04:52:28;;;;;;;10.98;2.50;;;16.60;87.70;;;;;;5093272;28;20027;-76
2023/07/13 04:54:54;;;;;;;7.60;2.70;;;16.60;88.50;;;;;;5092121;28;20028;-76
2023/07/13 04:57:19;;;;;;;7.40;2.72;;;16.60;88.50;;;;;;5093067;28;20107;-76
2023/07/13 04:59:45;;;;;;;9.35;3.10;;;16.60;88.80;;;;;;5092101;28;20041;-76
2023/07/13 05:02:11;;;;;;;5.85;2.63;;;16.60;88.70;;;;;;5092108;28;20107;-76
2023/07/13 05:04:36;;;;;;;8.50;2.70;;;16.70;88.80;;;;;;5075368;28;20036;-76
2023/07/13 05:07:02;;;;;;;12.73;3.08;;;16.70;88.60;;;;;;5092033;28;20061;-76
2023/07/13 05:09:28;;;;;;;5.80;2.58;;;16.70;89.10;;;;;;5075174;28;20043;-76
2023/07/13 05:11:53;;;;;;;12.63;3.35;;;16.70;89.50;;;;;;5091865;28;20027;-76
2023/07/13 05:14:19;;;;;;;10.30;3.65;;;16.80;89.60;;;;;;5092006;28;20025;-77
2023/07/13 05:16:44;;;;;;;10.15;3.80;;;16.80;89.40;;;;;;5091878;28;20033;-76
2023/07/13 05:19:11;;;;;;;10.57;3.67;;;16.90;89.80;;;;;;5092880;28;20020;-76
2023/07/13 05:21:37;;;;;;;8.95;3.55;;;16.90;89.70;;;;;;5091847;28;20021;-77
2023/07/13 05:24:03;;;;;;;9.98;4.22;;;17.00;89.60;;;;;;5092833;28;20108;-76
2023/07/13 05:26:28;;;;;;;13.63;4.60;;;17.00;90.50;;;;;;5092723;28;20104;-76
2023/07/13 05:28:54;;;;;;;12.68;5.40;;;17.00;90.20;;;;;;5094467;28;20028;-76
2023/07/13 05:31:20;;;;;;;12.15;4.88;;;17.00;90.20;;;;;;5095531;28;20028;-76
2023/07/13 05:33:45;;;;;;;16.63;5.97;;;17.00;90.40;;;;;;5095565;28;20021;-76
2023/07/13 05:36:11;;;;;;;15.98;6.30;;;17.10;90.40;;;;;;5095611;28;20039;-76
2023/07/13 05:38:37;;;;;;;18.23;6.35;;;17.10;90.40;;;;;;5096401;28;20028;-77
2023/07/13 05:41:02;;;;;;;13.60;5.45;;;17.30;90.20;;;;;;5095310;28;20115;-75
2023/07/13 05:43:28;;;;;;;18.73;6.38;;;17.30;90.30;;;;;;5095182;28;20564;-76
2023/07/13 05:45:55;;;;;;;17.67;6.78;;;17.30;90.40;;;;;;5095173;28;20059;-77
2023/07/13 05:48:21;;;;;;;18.27;7.40;;;17.30;90.30;;;;;;5096229;28;20051;-75
2023/07/13 05:50:47;;;;;;;20.63;6.95;;;17.20;90.40;;;;;;5095304;28;20045;-76
2023/07/13 05:53:12;;;;;;;19.05;7.28;;;17.30;90.60;;;;;;5096163;28;20017;-76
2023/07/13 05:55:47;;;;;;;21.33;8.73;;;17.30;90.40;;;;;;5096107;28;20044;-76
2023/07/13 05:58:13;;;;;;;20.35;7.80;;;17.30;90.60;;;;;;5095207;28;20055;-77
2023/07/13 06:00:40;;;;;;;24.95;8.10;;;17.30;90.80;;;;;;5094918;28;20024;-76
2023/07/13 06:03:06;;;;;;;23.40;8.23;;;17.30;91.10;;;;;;5096100;28;20070;-76
2023/07/13 06:05:33;;;;;;;20.50;8.50;;;17.30;90.80;;;;;;5095849;28;20033;-76
2023/07/13 06:07:59;;;;;;;21.60;8.52;;;17.30;90.90;;;;;;5095014;28;20025;-76
2023/07/13 06:10:25;;;;;;;18.05;8.73;;;17.30;90.70;;;;;;5094978;28;20052;-76
2023/07/13 06:12:51;;;;;;;17.38;8.18;;;17.40;90.70;;;;;;5078118;28;20032;-76
2023/07/13 06:15:16;;;;;;;18.15;7.88;;;17.40;90.70;;;;;;5094797;28;20120;-77
2023/07/13 06:17:42;;;;;;;17.45;7.88;;;17.50;90.90;;;;;;5094695;28;20044;-76
2023/07/13 06:20:08;;;;;;;20.25;8.07;;;17.50;91.10;;;;;;5095654;28;20517;-76
2023/07/13 06:22:33;;;;;;;20.73;8.30;;;17.50;90.70;;;;;;5095621;28;20044;-75
2023/07/13 06:24:59;;;;;;;20.13;8.73;;;17.50;90.80;;;;;;5077779;28;20024;-77
2023/07/13 06:27:25;;;;;;;19.75;7.78;;;17.50;90.90;;;;;;5094617;28;20483;-75
2023/07/13 06:29:50;;;;;;;19.27;7.90;;;17.60;91.00;;;;;;5095480;28;20032;-74
2023/07/13 06:32:17;;;;;;;21.77;8.50;;;17.60;91.20;;;;;;5095424;28;20035;-76
2023/07/13 06:34:42;;;;;;;19.95;8.05;;;17.60;90.70;;;;;;5094534;28;20028;-76
2023/07/13 06:37:09;;;;;;;14.82;7.40;;;17.60;90.90;;;;;;5095331;28;20035;-76
2023/07/13 06:39:35;;;;;;;20.98;8.38;;;17.70;90.70;;;;;;5094774;28;20048;-76
2023/07/13 06:42:01;;;;;;;20.10;9.27;;;17.70;90.70;;;;;;5077326;28;20028;-76
2023/07/13 06:44:27;;;;;;;17.40;7.35;;;17.70;90.70;;;;;;5095191;28;20053;-76
2023/07/13 06:46:53;;;;;;;18.98;8.00;;;17.80;90.90;;;;;;5094246;28;20033;-76
2023/07/13 06:49:19;;;;;;;18.80;8.80;;;17.90;90.80;;;;;;5094265;28;20025;-76
2023/07/13 06:51:44;;;;;;;20.88;8.27;;;17.90;90.60;;;;;;5095107;28;20028;-77
2023/07/13 06:54:10;;;;;;;18.98;8.02;;;17.90;90.50;;;;;;5077344;28;20025;-76
2023/07/13 06:56:36;;;;;;;22.25;9.50;;;18.00;90.50;;;;;;5077353;28;20020;-76
2023/07/13 06:59:01;;;;;;;17.30;8.13;;;18.00;90.60;;;;;;5094904;28;20112;-76
2023/07/13 07:01:27;;;;;;;20.23;8.95;;;18.00;90.30;;;;;;5094843;28;20092;-76
2023/07/13 07:03:52;;;;;;;22.85;9.20;;;18.20;90.10;;;;;;5094989;28;20039;-77
2023/07/13 07:06:23;;;;;;;19.98;8.65;;;18.10;89.90;;;;;;5093786;28;20043;-76
2023/07/13 07:08:49;;;;;;;18.80;8.80;;;18.00;90.30;;;;;;5094746;28;20348;-76
2023/07/13 07:11:19;;;;;;;22.40;8.65;;;18.10;90.60;;;;;;5093729;28;20134;-76
2023/07/13 07:13:45;;;;;;;17.40;8.35;;;18.20;90.30;;;;;;5094766;28;20020;-76
2023/07/13 07:16:11;;;;;;;22.33;8.40;;;18.10;90.20;;;;;;5093572;28;20062;-76
2023/07/13 07:18:36;;;;;;;22.67;8.93;;;18.20;90.20;;;;;;5094508;28;20024;-76
2023/07/13 07:21:02;;;;;;;19.73;8.65;;;18.20;90.30;;;;;;5093603;28;20036;-77
2023/07/13 07:23:28;;;;;;;23.15;8.30;;;18.30;89.90;;;;;;5093618;28;20093;-76
2023/07/13 07:25:54;;;;;;;23.73;8.70;;;18.30;90.20;;;;;;5093440;28;20024;-76
2023/07/13 07:28:20;;;;;;;18.70;8.30;;;18.30;90.10;;;;;;5093276;28;20029;-76
2023/07/13 07:30:46;;;;;;;22.08;8.15;;;18.30;90.40;;;;;;5093268;28;20052;-76
2023/07/13 07:33:12;;;;;;;23.10;8.13;;;18.30;90.40;;;;;;5093261;28;20025;-76
2023/07/13 07:35:38;;;;;;;16.23;8.35;;;18.30;90.40;;;;;;5076459;28;20035;-77
2023/07/13 07:38:04;;;;;;;17.75;8.00;;;18.30;90.30;;;;;;5094132;28;20032;-76
2023/07/13 07:40:29;;;;;;;17.77;7.70;;;18.40;90.20;;;;;;5094048;28;20028;-76
2023/07/13 07:42:55;;;;;;;26.92;9.15;;;18.40;90.10;;;;;;5093766;28;20071;-76
2023/07/13 07:45:21;;;;;;;23.90;8.25;;;18.40;89.40;;;;;;5093899;28;20120;-77
2023/07/13 07:47:47;;;;;;;18.65;8.23;;;18.40;89.30;;;;;;5092899;28;20020;-76
2023/07/13 07:50:13;;;;;;;22.02;8.45;;;18.40;90.10;;;;;;5093688;28;20112;-76
2023/07/13 07:52:38;;;;;;;21.80;8.60;;;18.40;89.50;;;;;;5093266;28;20024;-76
2023/07/13 07:55:06;;;;;;;25.85;9.27;;;18.50;89.20;;;;;;5093795;28;20036;-76
2023/07/13 07:57:32;;;;;;;19.50;8.73;;;18.60;89.70;;;;;;5093810;28;20039;-76
2023/07/13 07:59:58;;;;;;;17.13;8.38;;;18.70;89.90;;;;;;5076167;28;20028;-77
2023/07/13 08:02:25;;;;;;;19.67;8.48;;;18.70;90.00;;;;;;5093698;28;20054;-76
2023/07/13 08:04:50;;;;;;;17.13;7.93;;;18.80;90.10;;;;;;5092595;28;20082;-76
2023/07/13 08:07:16;;;;;;;19.13;8.20;;;18.80;89.00;;;;;;5076043;28;20180;-76
2023/07/13 08:09:42;;;;;;;16.17;8.02;;;18.80;88.70;;;;;;5092685;28;20044;-77
2023/07/13 08:12:08;;;;;;;18.45;8.20;;;18.80;89.30;;;;;;5092642;28;20031;-76
2023/07/13 08:14:33;;;;;;;18.98;8.57;;;18.90;89.90;;;;;;5093555;28;20047;-77
2023/07/13 08:16:59;;;;;;;17.98;8.00;;;18.90;89.40;;;;;;5093685;28;20483;-76
2023/07/13 08:19:24;;;;;;;23.42;7.97;;;18.90;88.30;;;;;;5092568;28;20088;-77
2023/07/13 08:21:50;;;;;;;17.75;7.65;;;19.00;88.60;;;;;;5092496;28;20031;-77
2023/07/13 08:24:18;;;;;;;16.17;8.15;;;19.10;88.30;;;;;;5092408;28;20037;-77
2023/07/13 08:26:44;;;;;;;23.02;8.30;;;19.30;88.40;;;;;;5076035;28;20032;-77
2023/07/13 08:29:10;;;;;;;17.05;7.85;;;19.30;88.40;;;;;;5092425;28;20024;-76
2023/07/13 08:31:36;;;;;;;16.02;7.13;;;19.40;87.50;;;;;;5092394;28;20051;-77
2023/07/13 08:34:02;;;;;;;13.70;7.18;;;19.40;87.80;;;;;;5092365;28;20112;-79
2023/07/13 08:36:29;;;;;;;17.92;7.57;;;19.50;87.40;;;;;;5093239;28;20029;-76
2023/07/13 08:38:54;;;;;;;20.55;8.05;;;19.60;86.50;;;;;;5075668;28;20029;-76
2023/07/13 08:41:21;;;;;;;14.23;7.47;;;19.70;87.50;;;;;;5093234;28;20032;-77
2023/07/13 08:43:50;;;;;;;17.27;7.85;;;19.70;86.70;;;;;;5092116;28;20052;-78
2023/07/13 08:46:23;;;;;;;21.00;7.75;;;19.80;86.90;;;;;;5093123;28;20025;-74
2023/07/13 08:48:53;;;;;;;17.02;7.35;;;19.90;86.20;;;;;;5093191;28;20016;-76
2023/07/13 08:51:34;;;;;;;14.05;6.97;;;19.90;86.60;;;;;;5093211;28;20029;-76
2023/07/13 08:54:05;;;;;;;13.07;7.05;;;20.00;86.40;;;;;;5092116;28;20024;-76
2023/07/13 08:56:32;;;;;;;15.35;6.22;;;20.00;83.20;;;;;;5093324;28;20028;-77
2023/07/13 08:59:18;;;;;;;11.57;6.22;;;20.00;83.70;;;;;;5092134;28;20154;-77
2023/07/13 09:02:16;;;;;;;11.48;5.88;;;20.10;82.10;;;;;;5093121;28;20052;-75
2023/07/13 09:04:49;;;;;;;12.50;6.10;;;20.10;79.90;;;;;;5096071;28;20040;-76
2023/07/13 09:07:52;;;;;;;12.00;5.75;;;20.00;79.60;;;;;;5097084;28;20012;-74
2023/07/13 09:10:24;;;;;;;12.00;5.85;;;20.10;81.10;;;;;;5097065;28;20021;-76
2023/07/13 09:13:12;;;;;;;8.35;5.00;;;20.20;80.50;;;;;;5096066;28;20017;-78
2023/07/13 09:15:43;;;;;;;10.48;4.90;;;20.30;77.90;;;;;;5096927;28;20050;-76
2023/07/13 09:18:37;;;;;;;11.40;5.40;;;20.50;81.00;;;;;;5095801;28;20088;-76
2023/07/13 09:21:15;;;;;;;11.23;5.88;;;20.60;79.40;;;;;;5090848;28;20052;-77
2023/07/13 09:23:41;;;;;;;11.30;4.80;;;20.70;79.40;;;;;;5096734;28;20024;-75
2023/07/13 09:26:21;;;;;;;11.10;5.45;;;20.80;80.60;;;;;;5096593;28;20059;-75
2023/07/13 09:28:52;;;;;;;11.00;5.10;;;20.80;76.80;;;;;;5096692;28;20043;-74
2023/07/13 09:31:41;;;;;;;11.13;6.05;;;20.80;77.20;;;;;;5095666;28;20025;-74
2023/07/13 09:34:11;;;;;;;11.75;6.00;;;20.90;80.10;;;;;;5096445;28;20080;-73
2023/07/13 09:36:37;;;;;;;8.65;5.05;;;21.00;78.90;;;;;;5096460;28;20048;-77
2023/07/13 09:39:18;;;;;;;8.48;5.03;;;21.00;75.00;;;;;;5095501;28;20024;-75
2023/07/13 09:41:43;;;;;;;10.48;5.90;;;21.00;75.60;;;;;;5096397;28;20050;-77
2023/07/13 09:44:12;;;;;;;12.30;6.18;;;21.00;73.60;;;;;;5096181;28;20076;-76
2023/07/13 09:46:59;;;;;;;9.25;5.63;;;21.00;74.10;;;;;;5096228;28;20021;-77
2023/07/13 09:49:35;;;;;;;14.15;6.43;;;21.00;73.20;;;;;;5095777;28;20062;-76
2023/07/13 09:52:21;;;;;;;10.13;6.03;;;21.00;74.00;;;;;;5095242;28;20036;-76
2023/07/13 09:54:50;;;;;;;10.25;5.93;;;20.90;73.60;;;;;;5094804;28;20049;-76
2023/07/13 09:57:18;;;;;;;8.85;5.40;;;21.00;74.40;;;;;;5095170;28;20017;-76
2023/07/13 09:59:46;;;;;;;8.57;4.97;;;20.90;74.60;;;;;;5096111;28;20035;-76
2023/07/13 10:02:24;;;;;;;8.50;5.50;;;21.00;73.40;;;;;;5095987;28;20054;-76
2023/07/13 10:05:03;;;;;;;8.50;5.28;;;21.00;74.10;;;;;;5095906;28;20033;-77
2023/07/13 10:07:31;;;;;;;9.13;5.20;;;21.20;74.10;;;;;;5094958;28;20055;-77
2023/07/13 10:10:00;;;;;;;6.60;5.45;;;21.30;75.10;;;;;;5095916;28;20027;-76
2023/07/13 10:12:27;;;;;;;9.32;5.70;;;21.40;73.40;;;;;;5094877;28;20021;-76
2023/07/13 10:14:56;;;;;;;7.75;4.88;;;21.50;73.10;;;;;;5094062;28;20021;-77
2023/07/13 10:17:32;;;;;;;7.13;4.85;;;21.60;69.80;;;;;;5094738;28;20111;-77
2023/07/13 10:20:10;;;;;;;9.88;4.95;;;21.60;71.10;;;;;;5094865;28;20089;-77
2023/07/13 10:22:59;;;;;;;10.07;5.45;;;21.60;71.20;;;;;;5078682;28;20025;-76
2023/07/13 10:25:30;;;;;;;9.32;5.20;;;21.60;69.60;;;;;;5095530;28;20076;-76
2023/07/13 10:28:13;;;;;;;8.60;5.35;;;21.50;70.70;;;;;;5094715;28;20045;-74
2023/07/13 10:30:41;;;;;;;8.10;5.50;;;21.40;69.60;;;;;;5095511;28;20033;-77
2023/07/13 10:33:12;;;;;;;8.20;4.97;;;21.40;70.70;;;;;;5094462;28;20036;-75
2023/07/13 10:35:40;;;;;;;8.23;4.80;;;21.50;69.60;;;;;;5094416;28;20092;-74
2023/07/13 10:38:12;;;;;;;9.30;4.70;;;21.60;69.30;;;;;;5095390;28;20029;-75
2023/07/13 10:41:03;;;;;;;8.00;4.95;;;21.40;69.80;;;;;;5095509;28;20028;-75
2023/07/13 10:43:38;;;;;;;7.70;5.13;;;21.40;70.40;;;;;;5094102;28;20052;-75
2023/07/13 10:46:07;;;;;;;7.10;4.45;;;21.40;69.60;;;;;;5095196;28;20033;-74
2023/07/13 10:48:36;;;;;;;6.10;4.28;;;21.50;68.90;;;;;;5094198;28;20040;-74
2023/07/13 10:51:05;;;;;;;6.60;4.28;;;21.40;68.70;;;;;;5094137;28;20024;-74
2023/07/13 10:53:34;;;;;;;7.63;4.22;;;21.50;69.70;;;;;;5095087;28;20024;-75
2023/07/13 10:56:00;;;;;;;6.30;4.00;;;21.50;69.60;;;;;;5095023;28;20025;-75
2023/07/13 10:58:36;;;;;;;8.10;4.43;;;21.70;69.00;;;;;;5094960;28;20059;-76
2023/07/13 11:01:11;;;;;;;7.72;4.13;;;21.70;72.20;;;;;;5094927;28;20050;-76
2023/07/13 11:03:59;;;;;;;7.50;3.85;;;21.90;69.40;;;;;;5094943;28;20028;-75
2023/07/13 11:06:25;;;;;;;4.75;3.53;;;22.00;69.00;;;;;;5094726;28;20027;-78
2023/07/13 11:08:52;;;;;;;5.78;3.70;;;21.80;69.10;;;;;;5093778;28;20056;-75
2023/07/13 11:11:23;;;;;;;12.68;4.25;;;21.80;70.30;;;;;;5094700;28;20381;-76
2023/07/13 11:13:49;;;;;;;7.60;3.92;;;21.80;70.20;;;;;;5094671;28;20025;-76
2023/07/13 11:16:17;;;;;;;6.90;4.35;;;21.80;70.30;;;;;;5094641;28;20025;-78
2023/07/13 11:18:52;;;;;;;8.65;4.78;;;21.90;70.10;;;;;;5094540;28;20059;-78
2023/07/13 11:21:26;;;;;;;7.70;4.45;;;21.90;69.60;;;;;;5094512;28;20044;-80
2023/07/13 11:23:54;;;;;;;6.18;2.83;;;21.90;69.50;;;;;;5094682;28;20032;-80
2023/07/13 11:26:39;;;;;;;6.07;3.35;;;21.80;70.20;;;;;;5094290;28;20021;-78
2023/07/13 11:29:15;;;;;;;5.82;2.90;;;21.70;72.10;;;;;;5093494;28;20028;-78
2023/07/13 11:31:43;;;;;;;5.60;3.00;;;21.60;72.10;;;;;;5093362;28;20025;-79
2023/07/13 11:34:14;;;;;;;7.53;3.63;;;21.60;72.80;;;;;;5094102;28;20017;-79
2023/07/13 11:36:44;;;;;;;9.35;3.60;;;21.60;73.00;;;;;;5094228;28;20031;-79
2023/07/13 11:39:21;;;;;;;3.35;2.80;;;21.60;73.30;;;;;;5094105;28;20120;-79
2023/07/13 11:41:56;;;;;;;5.40;2.85;;;21.60;73.30;;;;;;5094267;28;20028;-79
2023/07/13 11:44:23;;;;;;;6.47;3.22;;;21.60;73.10;;;;;;5093877;28;20057;-78
2023/07/13 11:46:53;;;;;;;5.85;3.30;;;21.50;73.20;;;;;;5093982;28;20029;-79
2023/07/13 11:49:21;;;;;;;5.93;3.58;;;21.40;73.80;;;;;;5093931;28;20020;-78
2023/07/13 11:51:53;;;;;;;5.72;3.55;;;21.40;74.40;;;;;;5093927;28;20028;-78
2023/07/13 11:54:29;;;;;;;10.80;4.07;;;21.40;74.60;;;;;;5093893;28;20028;-79
2023/07/13 11:57:23;;;;;;;10.05;5.22;;;21.40;75.60;;;;;;5093809;28;20027;-79
2023/07/13 11:59:50;;;;;;;9.90;4.80;;;21.20;77.90;;;;;;5093741;28;20039;-78
2023/07/13 12:02:38;;;;;;;6.68;3.85;;;21.10;79.20;;;;;;5093721;28;20059;-79
2023/07/13 12:05:06;;;;;;;5.78;3.22;;;20.90;79.60;;;;;;5093783;28;20024;-79
2023/07/13 12:07:33;;;;;;;5.18;3.50;;;20.80;79.80;;;;;;5092986;28;20114;-78
2023/07/13 12:10:10;;;;;;;8.15;3.90;;;20.60;80.10;;;;;;5093633;28;20072;-79
2023/07/13 12:12:37;;;;;;;6.03;3.25;;;20.60;81.20;;;;;;5093846;28;20024;-78
2023/07/13 12:15:06;;;;;;;5.95;3.30;;;20.70;81.40;;;;;;5093487;28;20503;-78
2023/07/13 12:17:34;;;;;;;5.78;2.72;;;20.80;80.90;;;;;;5092558;28;20036;-79
2023/07/13 12:20:06;;;;;;;5.40;3.15;;;20.90;81.50;;;;;;5093585;28;20031;-78
2023/07/13 12:22:34;;;;;;;5.97;3.50;;;21.00;81.70;;;;;;5093762;28;20035;-79
2023/07/13 12:25:00;;;;;;;5.78;3.80;;;20.90;81.00;;;;;;5092496;28;20032;-78
2023/07/13 12:27:28;;;;;;;6.28;3.97;;;21.00;82.00;;;;;;5093466;28;20025;-78
2023/07/13 12:30:01;;;;;;;8.07;4.85;;;21.10;82.40;;;;;;5092393;28;20048;-78
2023/07/13 12:32:29;;;;;;;8.95;4.97;;;21.20;83.10;;;;;;5093459;28;20024;-78
2023/07/13 12:35:18;;;;;;;10.05;5.00;;;21.30;83.40;;;;;;5093499;28;20021;-79
2023/07/13 12:37:46;;;;;;;7.68;5.25;;;21.50;83.70;;;;;;5092877;28;20024;-79
2023/07/13 12:40:22;;;;;;;9.23;5.40;;;21.70;83.50;;;;;;5093321;28;20067;-79
2023/07/13 12:42:50;;;;;;;10.63;5.72;;;21.80;82.60;;;;;;5093085;28;20048;-78
2023/07/13 12:45:23;;;;;;;7.93;6.13;;;22.00;82.70;;;;;;5093215;28;20035;-79
2023/07/13 12:47:54;;;;;;;9.55;7.10;;;22.20;83.00;;;;;;5093323;28;20041;-79
2023/07/13 12:50:22;;;;;;;13.25;7.85;;;22.20;82.70;;;;;;5093252;28;20028;-79